Lawton, IA (51030)

5:07 AM CDT on August 23, 2014 (GMT -0500)
Sioux Gateway | Change Station
CLOSE
Current Station
Airport
Location: Sioux City,
Elevation: 1102 ft
Nearby Weather Stations

Elev 1102 ft 42.39 °N, 96.38 °W | Updated 15 minutes ago

Light Rain
Light Rain
74 °F
Feels Like 74 °F
N
8
Wind Variable Wind from NE

Today
High -- | Low -- °F
--% Chance of Precip.
Yesterday
High -- | Low -- °F
Precip. -- in
6:40 AM 8:13 PM
Waning Crescent, 4% visible
Pressure 29.86 in
Visibility 10.0 miles
Clouds Few 4100 ft
Scattered Clouds 7000 ft
Mostly Cloudy 12000 ft
Dew Point 68 °F
Humidity 82%
Rainfall 1.36 in
Snow Depth Not available.
UV 0 out of 12
Pollen 9.10 out of 12
Air Quality Not available.
Flu Activity Not available.
METAR KSUX 230952Z 05007KT 10SM -RA FEW041 SCT070 BKN120 23/20 A2989 RMK AO2 SLP111 P0010 T02330200

More Conditions Fewer Conditions

Pressure 29.86 in
Visibility 10.0 miles
Clouds Few 4100 ft
Scattered Clouds 7000 ft
Mostly Cloudy 12000 ft
Dew Point 68 °F
Humidity 82%
Rainfall 1.36 in
Snow Depth Not available.
UV 0 out of 12
Pollen 9.10 out of 12
Air Quality Not available.
Flu Activity Not available.
METAR KSUX 230952Z 05007KT 10SM -RA FEW041 SCT070 BKN120 23/20 A2989 RMK AO2 SLP111 P0010 T02330200

More Conditions Fewer Conditions

10-Day Weather Forecast

Almanac

Astronomy

Aug. 23, 2014 Rise Set
Actual Time 6:40 AM CDT 8:13 PM CDT
Civil Twilight 6:10 AM CDT 8:43 PM CDT
Nautical Twilight 5:34 AM CDT 9:18 PM CDT
Astronomical Twilight 4:56 AM CDT 9:56 PM CDT
Moon 4:56 AM CDT 6:59 PM CDT
Length of Visible Light 14h 32m
Length of Day
13h 33m
Tomorrow will be 2m 40s shorter.
Waning Crescent, 4% of the Moon is Illuminated
Today
Waning Crescent
Aug 25
New
Sep 2
First Quarter
Sep 8
Full
Sep 15
Last Quarter

Today's Extremes

State Highs State Lows

Community

WunderPhotos

Upload Photos

1,746,396 photos uploaded!

WunderBlogs® & News

By Dr. Jeff Masters
Director of Meteorology, Weather Underground
By Kari Strenfel
Meteorologist, Weather Underground
By Christopher C. Burt
Weather Historian, Weather Underground
August 23, 2014
August 23, 2014
August 22, 2014

Nearby

Snow Depth

Station Depth Elevation
No new snow has been reported.

Earthquake Activity

City Distance Mag. Time & Date
No recent earthquake activity has been reported nearby.
Minimum magnitude displayed is 2.5.

Coastal Water Temperatures

Place Temperature
No Stations Reporting

Nearby Weather Stations